< < Back
Terminal Aerodrome Forecast


Current Version              Previous Versions:   1  2  3  4  5  6  7  8  9  

Terminal Aerodrome Forecast

091
FTUS44 KMRX 271732
TAFCHA
TAF
KCHA 271732Z 2718/2818 32010G18KT P6SM BKN035
     FM280000 35005KT P6SM SCT040=

Latest METAR

452
SAUS80 KWBC 280100
MTRCHA
METAR KCHA 280053Z 36004KT 10SM FEW038 02/M05 A3042 RMK AO2 SLP304
T00171050


USA.gov is the U.S. government's official web portal to all federal, state and local government web resources and services.